sensor_id;sensor_type;location;lat;lon;timestamp;temperature;humidity
30097;DHT22;16915;51.466;3.610;2022-12-18T00:01:17;-2.60;99.90
30097;DHT22;16915;51.466;3.610;2022-12-18T00:03:44;-2.50;99.90
30097;DHT22;16915;51.466;3.610;2022-12-18T00:06:10;-2.40;99.90
30097;DHT22;16915;51.466;3.610;2022-12-18T00:08:37;-2.40;99.90
30097;DHT22;16915;51.466;3.610;2022-12-18T00:11:07;-2.40;99.90
30097;DHT22;16915;51.466;3.610;2022-12-18T00:13:33;-2.50;99.90
30097;DHT22;16915;51.466;3.610;2022-12-18T00:16:09;-2.40;99.90
30097;DHT22;16915;51.466;3.610;2022-12-18T00:18:34;-2.30;99.90
30097;DHT22;16915;51.466;3.610;2022-12-18T00:21:02;-2.30;99.90
30097;DHT22;16915;51.466;3.610;2022-12-18T00:23:29;-2.40;99.90
30097;DHT22;16915;51.466;3.610;2022-12-18T00:26:02;-2.40;99.90
30097;DHT22;16915;51.466;3.610;2022-12-18T00:28:28;-2.40;99.90
30097;DHT22;16915;51.466;3.610;2022-12-18T00:31:07;-2.40;99.90
30097;DHT22;16915;51.466;3.610;2022-12-18T00:33:35;-2.40;99.90
30097;DHT22;16915;51.466;3.610;2022-12-18T00:36:02;-2.30;99.90
30097;DHT22;16915;51.466;3.610;2022-12-18T00:38:28;-2.40;99.90
30097;DHT22;16915;51.466;3.610;2022-12-18T00:40:54;-2.50;99.90
30097;DHT22;16915;51.466;3.610;2022-12-18T00:43:19;-2.50;99.90
30097;DHT22;16915;51.466;3.610;2022-12-18T00:45:45;-2.60;99.90
30097;DHT22;16915;51.466;3.610;2022-12-18T00:48:11;-2.70;99.90
30097;DHT22;16915;51.466;3.610;2022-12-18T00:50:36;-2.70;99.90
30097;DHT22;16915;51.466;3.610;2022-12-18T00:53:02;-2.80;99.90
30097;DHT22;16915;51.466;3.610;2022-12-18T00:55:28;-2.80;99.90
30097;DHT22;16915;51.466;3.610;2022-12-18T00:57:54;-2.70;99.90
30097;DHT22;16915;51.466;3.610;2022-12-18T01:00:20;-2.60;99.90
30097;DHT22;16915;51.466;3.610;2022-12-18T01:02:46;-2.60;99.90
30097;DHT22;16915;51.466;3.610;2022-12-18T01:05:13;-2.50;99.90
30097;DHT22;16915;51.466;3.610;2022-12-18T01:07:38;-2.60;99.90
30097;DHT22;16915;51.466;3.610;2022-12-18T01:10:05;-2.50;99.90
30097;DHT22;16915;51.466;3.610;2022-12-18T01:12:31;-2.50;99.90
30097;DHT22;16915;51.466;3.610;2022-12-18T01:14:57;-2.50;99.90
30097;DHT22;16915;51.466;3.610;2022-12-18T01:17:23;-2.50;99.90
30097;DHT22;16915;51.466;3.610;2022-12-18T01:19:49;-2.50;99.90
30097;DHT22;16915;51.466;3.610;2022-12-18T01:22:14;-2.50;99.90
30097;DHT22;16915;51.466;3.610;2022-12-18T01:24:40;-2.50;99.90
30097;DHT22;16915;51.466;3.610;2022-12-18T01:27:05;-2.60;99.90
30097;DHT22;16915;51.466;3.610;2022-12-18T01:29:32;-2.60;99.90
30097;DHT22;16915;51.466;3.610;2022-12-18T01:31:58;-2.60;99.90
30097;DHT22;16915;51.466;3.610;2022-12-18T01:34:24;-2.60;99.90
30097;DHT22;16915;51.466;3.610;2022-12-18T01:36:50;-2.70;99.90
30097;DHT22;16915;51.466;3.610;2022-12-18T01:39:18;-2.80;99.90
30097;DHT22;16915;51.466;3.610;2022-12-18T01:41:46;-2.90;99.90
30097;DHT22;16915;51.466;3.610;2022-12-18T01:45:03;-3.00;99.90
30097;DHT22;16915;51.466;3.610;2022-12-18T01:50:08;-3.10;99.90
30097;DHT22;16915;51.466;3.610;2022-12-18T01:52:36;-3.20;99.90
30097;DHT22;16915;51.466;3.610;2022-12-18T01:55:07;-3.30;99.90
30097;DHT22;16915;51.466;3.610;2022-12-18T01:57:33;-3.40;99.90
30097;DHT22;16915;51.466;3.610;2022-12-18T02:00:07;-3.30;99.90
30097;DHT22;16915;51.466;3.610;2022-12-18T02:02:36;-3.10;99.90
30097;DHT22;16915;51.466;3.610;2022-12-18T02:05:03;-3.10;99.90
30097;DHT22;16915;51.466;3.610;2022-12-18T02:15:57;-3.40;99.90
30097;DHT22;16915;51.466;3.610;2022-12-18T02:18:33;-3.40;99.90
30097;DHT22;16915;51.466;3.610;2022-12-18T02:26:34;-3.20;99.90
30097;DHT22;16915;51.466;3.610;2022-12-18T02:29:03;-3.10;99.90
30097;DHT22;16915;51.466;3.610;2022-12-18T02:31:36;-3.00;99.90
30097;DHT22;16915;51.466;3.610;2022-12-18T02:34:07;-3.00;99.90
30097;DHT22;16915;51.466;3.610;2022-12-18T02:36:36;-2.90;99.90
30097;DHT22;16915;51.466;3.610;2022-12-18T02:39:05;-2.90;99.90
30097;DHT22;16915;51.466;3.610;2022-12-18T02:41:32;-2.90;99.90
30097;DHT22;16915;51.466;3.610;2022-12-18T02:44:06;-2.90;99.90
30097;DHT22;16915;51.466;3.610;2022-12-18T02:46:36;-3.00;99.90
30097;DHT22;16915;51.466;3.610;2022-12-18T02:54:57;-3.30;99.90
30097;DHT22;16915;51.466;3.610;2022-12-18T03:00:39;-3.50;99.90
30097;DHT22;16915;51.466;3.610;2022-12-18T03:03:11;-3.50;99.90
30097;DHT22;16915;51.466;3.610;2022-12-18T03:06:23;-3.60;99.90
30097;DHT22;16915;51.466;3.610;2022-12-18T03:08:49;-3.60;99.90
30097;DHT22;16915;51.466;3.610;2022-12-18T03:11:16;-3.60;99.90
30097;DHT22;16915;51.466;3.610;2022-12-18T03:14:03;-3.60;99.90
30097;DHT22;16915;51.466;3.610;2022-12-18T03:16:31;-3.70;99.90
30097;DHT22;16915;51.466;3.610;2022-12-18T03:19:18;-3.70;99.90
30097;DHT22;16915;51.466;3.610;2022-12-18T03:21:47;-3.70;99.90
30097;DHT22;16915;51.466;3.610;2022-12-18T03:24:15;-3.70;99.90
30097;DHT22;16915;51.466;3.610;2022-12-18T03:26:47;-3.60;99.90
30097;DHT22;16915;51.466;3.610;2022-12-18T03:29:21;-3.60;99.90
30097;DHT22;16915;51.466;3.610;2022-12-18T03:31:53;-3.60;99.90
30097;DHT22;16915;51.466;3.610;2022-12-18T03:34:24;-3.60;99.90
30097;DHT22;16915;51.466;3.610;2022-12-18T03:36:53;-3.60;99.90
30097;DHT22;16915;51.466;3.610;2022-12-18T03:39:19;-3.60;99.90
30097;DHT22;16915;51.466;3.610;2022-12-18T03:42:04;-3.70;99.90
30097;DHT22;16915;51.466;3.610;2022-12-18T03:47:27;-3.80;99.90
30097;DHT22;16915;51.466;3.610;2022-12-18T03:50:14;-3.90;99.90
30097;DHT22;16915;51.466;3.610;2022-12-18T03:53:08;-4.00;99.90
30097;DHT22;16915;51.466;3.610;2022-12-18T03:55:33;-4.00;99.90
30097;DHT22;16915;51.466;3.610;2022-12-18T03:58:01;-4.00;99.90
30097;DHT22;16915;51.466;3.610;2022-12-18T04:00:28;-4.00;99.90
30097;DHT22;16915;51.466;3.610;2022-12-18T04:02:55;-3.90;99.90
30097;DHT22;16915;51.466;3.610;2022-12-18T04:05:23;-3.90;99.90
30097;DHT22;16915;51.466;3.610;2022-12-18T04:07:51;-3.70;99.90
30097;DHT22;16915;51.466;3.610;2022-12-18T04:10:18;-3.60;99.90
30097;DHT22;16915;51.466;3.610;2022-12-18T04:12:44;-3.50;99.90
30097;DHT22;16915;51.466;3.610;2022-12-18T04:15:10;-3.40;99.90
30097;DHT22;16915;51.466;3.610;2022-12-18T04:17:37;-3.40;99.90
30097;DHT22;16915;51.466;3.610;2022-12-18T04:20:03;-3.30;99.90
30097;DHT22;16915;51.466;3.610;2022-12-18T04:22:29;-3.30;99.90
30097;DHT22;16915;51.466;3.610;2022-12-18T04:24:55;-3.30;99.90
30097;DHT22;16915;51.466;3.610;2022-12-18T04:27:21;-3.30;99.90
30097;DHT22;16915;51.466;3.610;2022-12-18T04:29:46;-3.40;99.90
30097;DHT22;16915;51.466;3.610;2022-12-18T04:32:12;-3.50;99.90
30097;DHT22;16915;51.466;3.610;2022-12-18T04:34:37;-3.50;99.90
30097;DHT22;16915;51.466;3.610;2022-12-18T04:37:03;-3.60;99.90
30097;DHT22;16915;51.466;3.610;2022-12-18T04:39:29;-3.50;99.90
30097;DHT22;16915;51.466;3.610;2022-12-18T04:41:56;-3.50;99.90
30097;DHT22;16915;51.466;3.610;2022-12-18T04:44:21;-3.50;99.90
30097;DHT22;16915;51.466;3.610;2022-12-18T04:46:47;-3.50;99.90
30097;DHT22;16915;51.466;3.610;2022-12-18T04:49:12;-3.60;99.90
30097;DHT22;16915;51.466;3.610;2022-12-18T04:51:38;-3.60;99.90
30097;DHT22;16915;51.466;3.610;2022-12-18T04:54:04;-3.50;99.90
30097;DHT22;16915;51.466;3.610;2022-12-18T04:56:31;-3.60;99.90
30097;DHT22;16915;51.466;3.610;2022-12-18T04:58:57;-3.50;99.90
30097;DHT22;16915;51.466;3.610;2022-12-18T05:01:22;-3.50;99.90
30097;DHT22;16915;51.466;3.610;2022-12-18T05:03:48;-3.50;99.90
30097;DHT22;16915;51.466;3.610;2022-12-18T05:06:14;-3.60;99.90
30097;DHT22;16915;51.466;3.610;2022-12-18T05:08:39;-3.50;99.90
30097;DHT22;16915;51.466;3.610;2022-12-18T05:11:15;-3.50;99.90
30097;DHT22;16915;51.466;3.610;2022-12-18T05:13:42;-3.50;99.90
30097;DHT22;16915;51.466;3.610;2022-12-18T05:16:08;-3.50;99.90
30097;DHT22;16915;51.466;3.610;2022-12-18T05:18:34;-3.50;99.90
30097;DHT22;16915;51.466;3.610;2022-12-18T05:21:00;-3.50;99.90
30097;DHT22;16915;51.466;3.610;2022-12-18T05:23:26;-3.40;99.90
30097;DHT22;16915;51.466;3.610;2022-12-18T05:25:58;-3.40;99.90
30097;DHT22;16915;51.466;3.610;2022-12-18T05:28:25;-3.40;99.90
30097;DHT22;16915;51.466;3.610;2022-12-18T05:30:52;-3.40;99.90
30097;DHT22;16915;51.466;3.610;2022-12-18T05:33:20;-3.40;99.90
30097;DHT22;16915;51.466;3.610;2022-12-18T05:35:54;-3.40;99.90
30097;DHT22;16915;51.466;3.610;2022-12-18T05:38:21;-3.40;99.90
30097;DHT22;16915;51.466;3.610;2022-12-18T05:40:47;-3.30;99.90
30097;DHT22;16915;51.466;3.610;2022-12-18T05:43:13;-3.30;99.90
30097;DHT22;16915;51.466;3.610;2022-12-18T05:45:39;-3.40;99.90
30097;DHT22;16915;51.466;3.610;2022-12-18T05:48:06;-3.40;99.90
30097;DHT22;16915;51.466;3.610;2022-12-18T05:50:39;-3.40;99.90
30097;DHT22;16915;51.466;3.610;2022-12-18T05:53:06;-3.40;99.90
30097;DHT22;16915;51.466;3.610;2022-12-18T05:55:36;-3.40;99.90
30097;DHT22;16915;51.466;3.610;2022-12-18T05:58:04;-3.50;99.90
30097;DHT22;16915;51.466;3.610;2022-12-18T06:00:31;-3.40;99.90
30097;DHT22;16915;51.466;3.610;2022-12-18T06:02:58;-3.30;99.90
30097;DHT22;16915;51.466;3.610;2022-12-18T06:05:24;-3.20;99.90
30097;DHT22;16915;51.466;3.610;2022-12-18T06:07:50;-3.10;99.90
30097;DHT22;16915;51.466;3.610;2022-12-18T06:10:15;-2.90;99.90
30097;DHT22;16915;51.466;3.610;2022-12-18T06:12:44;-2.80;99.90
30097;DHT22;16915;51.466;3.610;2022-12-18T06:15:10;-2.60;99.90
30097;DHT22;16915;51.466;3.610;2022-12-18T06:17:36;-2.60;99.90
30097;DHT22;16915;51.466;3.610;2022-12-18T06:20:02;-2.50;99.90
30097;DHT22;16915;51.466;3.610;2022-12-18T06:22:30;-2.40;99.90
30097;DHT22;16915;51.466;3.610;2022-12-18T06:24:55;-2.40;99.90
30097;DHT22;16915;51.466;3.610;2022-12-18T06:27:21;-2.30;99.90
30097;DHT22;16915;51.466;3.610;2022-12-18T06:29:46;-2.30;99.90
30097;DHT22;16915;51.466;3.610;2022-12-18T06:32:13;-2.20;99.90
30097;DHT22;16915;51.466;3.610;2022-12-18T06:34:38;-2.00;99.90
30097;DHT22;16915;51.466;3.610;2022-12-18T06:37:04;-2.20;99.90
30097;DHT22;16915;51.466;3.610;2022-12-18T06:39:30;-2.20;99.90
30097;DHT22;16915;51.466;3.610;2022-12-18T06:41:55;-2.10;99.90
30097;DHT22;16915;51.466;3.610;2022-12-18T06:44:21;-2.10;99.90
30097;DHT22;16915;51.466;3.610;2022-12-18T06:46:47;-2.10;99.90
30097;DHT22;16915;51.466;3.610;2022-12-18T06:49:13;-2.10;99.90
30097;DHT22;16915;51.466;3.610;2022-12-18T06:51:38;-2.10;99.90
30097;DHT22;16915;51.466;3.610;2022-12-18T06:54:05;-2.00;99.90
30097;DHT22;16915;51.466;3.610;2022-12-18T06:56:31;-2.00;99.90
30097;DHT22;16915;51.466;3.610;2022-12-18T06:58:56;-1.90;99.90
30097;DHT22;16915;51.466;3.610;2022-12-18T07:01:22;-1.90;99.90
30097;DHT22;16915;51.466;3.610;2022-12-18T07:03:52;-1.80;99.90
30097;DHT22;16915;51.466;3.610;2022-12-18T07:06:25;-1.80;99.90
30097;DHT22;16915;51.466;3.610;2022-12-18T07:08:52;-1.80;99.90
30097;DHT22;16915;51.466;3.610;2022-12-18T07:11:18;-1.80;99.90
30097;DHT22;16915;51.466;3.610;2022-12-18T07:13:45;-1.80;99.90
30097;DHT22;16915;51.466;3.610;2022-12-18T07:16:13;-1.80;99.90
30097;DHT22;16915;51.466;3.610;2022-12-18T07:18:39;-1.80;99.90
30097;DHT22;16915;51.466;3.610;2022-12-18T07:21:10;-1.80;99.90
30097;DHT22;16915;51.466;3.610;2022-12-18T07:23:36;-1.80;99.90
30097;DHT22;16915;51.466;3.610;2022-12-18T07:26:07;-1.90;99.90
30097;DHT22;16915;51.466;3.610;2022-12-18T07:28:34;-1.80;99.90
30097;DHT22;16915;51.466;3.610;2022-12-18T07:31:12;-1.90;99.90
30097;DHT22;16915;51.466;3.610;2022-12-18T07:33:38;-1.90;99.90
30097;DHT22;16915;51.466;3.610;2022-12-18T07:36:06;-1.90;99.90
30097;DHT22;16915;51.466;3.610;2022-12-18T07:38:33;-1.90;99.90
30097;DHT22;16915;51.466;3.610;2022-12-18T07:41:07;-1.90;99.90
30097;DHT22;16915;51.466;3.610;2022-12-18T07:43:34;-1.90;99.90
30097;DHT22;16915;51.466;3.610;2022-12-18T07:46:00;-1.90;99.90
30097;DHT22;16915;51.466;3.610;2022-12-18T07:48:27;-1.90;99.90
30097;DHT22;16915;51.466;3.610;2022-12-18T07:50:52;-1.90;99.90
30097;DHT22;16915;51.466;3.610;2022-12-18T07:53:18;-1.90;99.90
30097;DHT22;16915;51.466;3.610;2022-12-18T07:55:44;-1.90;99.90
30097;DHT22;16915;51.466;3.610;2022-12-18T07:58:09;-2.00;99.90
30097;DHT22;16915;51.466;3.610;2022-12-18T08:00:35;-1.90;99.90
30097;DHT22;16915;51.466;3.610;2022-12-18T08:03:01;-1.90;99.90
30097;DHT22;16915;51.466;3.610;2022-12-18T08:05:27;-1.90;99.90
30097;DHT22;16915;51.466;3.610;2022-12-18T08:07:54;-1.90;99.90
30097;DHT22;16915;51.466;3.610;2022-12-18T08:10:20;-1.90;99.90
30097;DHT22;16915;51.466;3.610;2022-12-18T08:12:49;-1.90;99.90
30097;DHT22;16915;51.466;3.610;2022-12-18T08:15:15;-1.80;99.90
30097;DHT22;16915;51.466;3.610;2022-12-18T08:17:40;-1.80;99.90
30097;DHT22;16915;51.466;3.610;2022-12-18T08:20:06;-1.80;99.90
30097;DHT22;16915;51.466;3.610;2022-12-18T08:22:37;-1.80;99.90
30097;DHT22;16915;51.466;3.610;2022-12-18T08:25:03;-1.80;99.90
30097;DHT22;16915;51.466;3.610;2022-12-18T08:27:30;-1.80;99.90
30097;DHT22;16915;51.466;3.610;2022-12-18T08:29:56;-1.80;99.90
30097;DHT22;16915;51.466;3.610;2022-12-18T08:32:22;-1.80;99.90
30097;DHT22;16915;51.466;3.610;2022-12-18T08:34:47;-1.70;99.90
30097;DHT22;16915;51.466;3.610;2022-12-18T08:37:13;-1.70;99.90
30097;DHT22;16915;51.466;3.610;2022-12-18T08:39:38;-1.70;99.90
30097;DHT22;16915;51.466;3.610;2022-12-18T08:42:04;-1.60;99.90
30097;DHT22;16915;51.466;3.610;2022-12-18T08:44:48;-1.60;99.90
30097;DHT22;16915;51.466;3.610;2022-12-18T08:47:14;-1.60;99.90
30097;DHT22;16915;51.466;3.610;2022-12-18T08:49:39;-1.50;99.90
30097;DHT22;16915;51.466;3.610;2022-12-18T08:52:07;-1.50;99.90
30097;DHT22;16915;51.466;3.610;2022-12-18T08:54:32;-1.50;99.90
30097;DHT22;16915;51.466;3.610;2022-12-18T08:56:58;-1.40;99.90
30097;DHT22;16915;51.466;3.610;2022-12-18T08:59:23;-1.40;99.90
30097;DHT22;16915;51.466;3.610;2022-12-18T09:01:49;-1.30;99.90
30097;DHT22;16915;51.466;3.610;2022-12-18T09:04:15;-1.30;99.90
30097;DHT22;16915;51.466;3.610;2022-12-18T09:06:41;-1.30;99.90
30097;DHT22;16915;51.466;3.610;2022-12-18T09:09:06;-1.30;99.90
30097;DHT22;16915;51.466;3.610;2022-12-18T09:11:33;-1.20;99.90
30097;DHT22;16915;51.466;3.610;2022-12-18T09:14:00;-1.20;99.90
30097;DHT22;16915;51.466;3.610;2022-12-18T09:16:27;-1.10;99.90
30097;DHT22;16915;51.466;3.610;2022-12-18T09:18:56;-1.10;99.90
30097;DHT22;16915;51.466;3.610;2022-12-18T09:21:27;-1.10;99.90
30097;DHT22;16915;51.466;3.610;2022-12-18T09:23:54;-1.10;99.90
30097;DHT22;16915;51.466;3.610;2022-12-18T09:26:21;-1.10;99.90
30097;DHT22;16915;51.466;3.610;2022-12-18T09:28:46;-1.00;99.90
30097;DHT22;16915;51.466;3.610;2022-12-18T09:31:13;-1.00;99.90
30097;DHT22;16915;51.466;3.610;2022-12-18T09:33:41;-1.00;99.90
30097;DHT22;16915;51.466;3.610;2022-12-18T09:36:09;-1.00;99.90
30097;DHT22;16915;51.466;3.610;2022-12-18T09:38:35;-0.90;99.90
30097;DHT22;16915;51.466;3.610;2022-12-18T09:41:17;-0.90;99.90
30097;DHT22;16915;51.466;3.610;2022-12-18T09:43:47;-0.80;99.90
30097;DHT22;16915;51.466;3.610;2022-12-18T09:46:25;-0.80;99.90
30097;DHT22;16915;51.466;3.610;2022-12-18T09:48:54;-0.80;99.90
30097;DHT22;16915;51.466;3.610;2022-12-18T09:51:50;-0.80;99.90
30097;DHT22;16915;51.466;3.610;2022-12-18T09:54:20;-0.70;99.90
30097;DHT22;16915;51.466;3.610;2022-12-18T09:56:47;-0.70;99.90
30097;DHT22;16915;51.466;3.610;2022-12-18T09:59:34;-0.80;99.90
30097;DHT22;16915;51.466;3.610;2022-12-18T10:02:13;-0.70;99.90
30097;DHT22;16915;51.466;3.610;2022-12-18T10:04:39;-0.70;99.90
30097;DHT22;16915;51.466;3.610;2022-12-18T10:09:42;-0.70;99.90
30097;DHT22;16915;51.466;3.610;2022-12-18T10:12:23;-0.70;99.90
30097;DHT22;16915;51.466;3.610;2022-12-18T10:15:02;-0.60;99.90
30097;DHT22;16915;51.466;3.610;2022-12-18T10:20:30;-0.60;99.90
30097;DHT22;16915;51.466;3.610;2022-12-18T10:23:18;-0.60;99.90
30097;DHT22;16915;51.466;3.610;2022-12-18T10:26:04;-0.60;99.90
30097;DHT22;16915;51.466;3.610;2022-12-18T10:28:32;-0.60;99.90
30097;DHT22;16915;51.466;3.610;2022-12-18T10:30:58;-0.60;99.90
30097;DHT22;16915;51.466;3.610;2022-12-18T10:33:28;-0.60;99.90
30097;DHT22;16915;51.466;3.610;2022-12-18T10:35:54;-0.60;99.90
30097;DHT22;16915;51.466;3.610;2022-12-18T10:38:26;-0.60;99.90
30097;DHT22;16915;51.466;3.610;2022-12-18T10:40:56;-0.50;99.90
30097;DHT22;16915;51.466;3.610;2022-12-18T10:43:25;-0.50;99.90
30097;DHT22;16915;51.466;3.610;2022-12-18T10:46:16;-0.50;99.90
30097;DHT22;16915;51.466;3.610;2022-12-18T10:51:33;-0.40;99.90
30097;DHT22;16915;51.466;3.610;2022-12-18T10:54:04;-0.40;99.90
30097;DHT22;16915;51.466;3.610;2022-12-18T10:56:32;-0.40;99.90
30097;DHT22;16915;51.466;3.610;2022-12-18T10:59:10;-0.40;99.90
30097;DHT22;16915;51.466;3.610;2022-12-18T11:01:56;-0.40;99.90
30097;DHT22;16915;51.466;3.610;2022-12-18T11:04:23;-0.40;99.90
30097;DHT22;16915;51.466;3.610;2022-12-18T11:06:57;-0.40;99.90
30097;DHT22;16915;51.466;3.610;2022-12-18T11:12:01;-0.40;99.90
30097;DHT22;16915;51.466;3.610;2022-12-18T11:14:35;-0.40;99.90
30097;DHT22;16915;51.466;3.610;2022-12-18T11:17:19;-0.40;99.90
30097;DHT22;16915;51.466;3.610;2022-12-18T11:19:45;-0.40;99.90
30097;DHT22;16915;51.466;3.610;2022-12-18T11:22:21;-0.30;99.90
30097;DHT22;16915;51.466;3.610;2022-12-18T11:24:59;-0.40;99.90
30097;DHT22;16915;51.466;3.610;2022-12-18T11:27:26;-0.40;99.90
30097;DHT22;16915;51.466;3.610;2022-12-18T11:30:08;-0.40;99.90
30097;DHT22;16915;51.466;3.610;2022-12-18T11:32:46;-0.40;99.90
30097;DHT22;16915;51.466;3.610;2022-12-18T11:37:55;-0.40;99.90
30097;DHT22;16915;51.466;3.610;2022-12-18T11:40:32;-0.50;99.90
30097;DHT22;16915;51.466;3.610;2022-12-18T11:43:37;-0.50;99.90
30097;DHT22;16915;51.466;3.610;2022-12-18T11:46:12;-0.50;99.90
30097;DHT22;16915;51.466;3.610;2022-12-18T11:48:44;-0.50;99.90
30097;DHT22;16915;51.466;3.610;2022-12-18T11:51:19;-0.60;99.90
30097;DHT22;16915;51.466;3.610;2022-12-18T11:53:47;-0.60;99.90
30097;DHT22;16915;51.466;3.610;2022-12-18T11:56:35;-0.60;99.90
30097;DHT22;16915;51.466;3.610;2022-12-18T11:59:09;-0.70;99.90
30097;DHT22;16915;51.466;3.610;2022-12-18T12:04:46;-0.70;99.90
30097;DHT22;16915;51.466;3.610;2022-12-18T12:07:43;-0.70;99.90
30097;DHT22;16915;51.466;3.610;2022-12-18T12:13:15;-0.70;99.90
30097;DHT22;16915;51.466;3.610;2022-12-18T12:15:54;-0.70;99.90
30097;DHT22;16915;51.466;3.610;2022-12-18T12:21:42;-0.70;99.90
30097;DHT22;16915;51.466;3.610;2022-12-18T12:24:22;-0.60;99.90
30097;DHT22;16915;51.466;3.610;2022-12-18T12:35:28;-0.70;99.90
30097;DHT22;16915;51.466;3.610;2022-12-18T12:38:57;-0.60;99.90
30097;DHT22;16915;51.466;3.610;2022-12-18T12:41:05;-0.60;99.90
30097;DHT22;16915;51.466;3.610;2022-12-18T12:43:41;-0.60;99.90
30097;DHT22;16915;51.466;3.610;2022-12-18T12:46:14;-0.70;99.90
30097;DHT22;16915;51.466;3.610;2022-12-18T12:48:55;-0.70;99.90
30097;DHT22;16915;51.466;3.610;2022-12-18T12:51:33;-0.60;99.90
30097;DHT22;16915;51.466;3.610;2022-12-18T12:54:00;-0.60;99.90
30097;DHT22;16915;51.466;3.610;2022-12-18T12:59:26;-0.50;99.90
30097;DHT22;16915;51.466;3.610;2022-12-18T13:02:05;-0.50;99.90
30097;DHT22;16915;51.466;3.610;2022-12-18T13:07:17;-0.50;99.90
30097;DHT22;16915;51.466;3.610;2022-12-18T13:13:09;-0.50;99.90
30097;DHT22;16915;51.466;3.610;2022-12-18T13:20:44;-0.40;99.90
30097;DHT22;16915;51.466;3.610;2022-12-18T13:25:59;-0.50;99.90
30097;DHT22;16915;51.466;3.610;2022-12-18T13:28:51;-0.50;99.90
30097;DHT22;16915;51.466;3.610;2022-12-18T13:36:41;-0.50;99.90
30097;DHT22;16915;51.466;3.610;2022-12-18T13:41:48;-0.60;99.90
30097;DHT22;16915;51.466;3.610;2022-12-18T13:44:37;-0.70;99.90
30097;DHT22;16915;51.466;3.610;2022-12-18T13:47:30;-0.70;99.90
30097;DHT22;16915;51.466;3.610;2022-12-18T13:49:57;-0.80;99.90
30097;DHT22;16915;51.466;3.610;2022-12-18T13:52:28;-0.80;99.90
30097;DHT22;16915;51.466;3.610;2022-12-18T13:54:59;-0.70;99.90
30097;DHT22;16915;51.466;3.610;2022-12-18T13:57:32;-0.70;99.90
30097;DHT22;16915;51.466;3.610;2022-12-18T14:00:14;-0.80;99.90
30097;DHT22;16915;51.466;3.610;2022-12-18T14:02:45;-0.70;99.90
30097;DHT22;16915;51.466;3.610;2022-12-18T14:07:50;-0.60;99.90
30097;DHT22;16915;51.466;3.610;2022-12-18T14:10:17;-0.70;99.90
30097;DHT22;16915;51.466;3.610;2022-12-18T14:12:47;-0.60;99.90
30097;DHT22;16915;51.466;3.610;2022-12-18T14:17:52;-0.60;99.90
30097;DHT22;16915;51.466;3.610;2022-12-18T14:20:19;-0.60;99.90
30097;DHT22;16915;51.466;3.610;2022-12-18T14:22:47;-0.60;99.90
30097;DHT22;16915;51.466;3.610;2022-12-18T14:25:21;-0.60;99.90
30097;DHT22;16915;51.466;3.610;2022-12-18T14:28:01;-0.60;99.90
30097;DHT22;16915;51.466;3.610;2022-12-18T14:30:31;-0.60;99.90
30097;DHT22;16915;51.466;3.610;2022-12-18T14:33:14;-0.50;99.90
30097;DHT22;16915;51.466;3.610;2022-12-18T14:35:43;-0.50;99.90
30097;DHT22;16915;51.466;3.610;2022-12-18T14:43:33;-0.50;99.90
30097;DHT22;16915;51.466;3.610;2022-12-18T14:46:00;-0.50;99.90
30097;DHT22;16915;51.466;3.610;2022-12-18T14:48:41;-0.50;99.90
30097;DHT22;16915;51.466;3.610;2022-12-18T14:51:14;-0.50;99.90
30097;DHT22;16915;51.466;3.610;2022-12-18T14:54:18;-0.50;99.90
30097;DHT22;16915;51.466;3.610;2022-12-18T14:56:46;-0.50;99.90
30097;DHT22;16915;51.466;3.610;2022-12-18T14:59:21;-0.40;99.90
30097;DHT22;16915;51.466;3.610;2022-12-18T15:05:14;-0.40;99.90
30097;DHT22;16915;51.466;3.610;2022-12-18T15:07:44;-0.40;99.90
30097;DHT22;16915;51.466;3.610;2022-12-18T15:10:22;-0.40;99.90
30097;DHT22;16915;51.466;3.610;2022-12-18T15:18:20;-0.30;99.90
30097;DHT22;16915;51.466;3.610;2022-12-18T15:20:50;-0.30;99.90
30097;DHT22;16915;51.466;3.610;2022-12-18T15:23:21;-0.30;99.90
30097;DHT22;16915;51.466;3.610;2022-12-18T15:28:34;-0.20;99.90
30097;DHT22;16915;51.466;3.610;2022-12-18T15:33:36;-0.20;99.90
30097;DHT22;16915;51.466;3.610;2022-12-18T15:36:05;-0.10;99.90
30097;DHT22;16915;51.466;3.610;2022-12-18T15:38:33;-0.10;99.90
30097;DHT22;16915;51.466;3.610;2022-12-18T15:40:59;-0.10;99.90
30097;DHT22;16915;51.466;3.610;2022-12-18T15:43:26;-0.10;99.90
30097;DHT22;16915;51.466;3.610;2022-12-18T15:46:04;-0.10;99.90
30097;DHT22;16915;51.466;3.610;2022-12-18T15:48:35;-0.10;99.90
30097;DHT22;16915;51.466;3.610;2022-12-18T15:51:03;-0.10;99.90
30097;DHT22;16915;51.466;3.610;2022-12-18T15:53:32;-0.10;99.90
30097;DHT22;16915;51.466;3.610;2022-12-18T15:55:58;-0.10;99.90
30097;DHT22;16915;51.466;3.610;2022-12-18T15:58:43;0.00;99.90
30097;DHT22;16915;51.466;3.610;2022-12-18T16:01:09;-0.10;99.90
30097;DHT22;16915;51.466;3.610;2022-12-18T16:03:35;0.00;99.90
30097;DHT22;16915;51.466;3.610;2022-12-18T16:06:01;0.00;99.90
30097;DHT22;16915;51.466;3.610;2022-12-18T16:08:28;-0.10;99.90
30097;DHT22;16915;51.466;3.610;2022-12-18T16:10:55;0.00;99.90
30097;DHT22;16915;51.466;3.610;2022-12-18T16:13:21;0.00;99.90
30097;DHT22;16915;51.466;3.610;2022-12-18T16:15:47;0.00;99.90
30097;DHT22;16915;51.466;3.610;2022-12-18T16:18:12;0.00;99.90
30097;DHT22;16915;51.466;3.610;2022-12-18T16:20:38;0.00;99.90
30097;DHT22;16915;51.466;3.610;2022-12-18T16:23:04;0.00;99.90
30097;DHT22;16915;51.466;3.610;2022-12-18T16:25:30;0.00;99.90
30097;DHT22;16915;51.466;3.610;2022-12-18T16:27:56;0.00;99.90
30097;DHT22;16915;51.466;3.610;2022-12-18T16:30:29;0.00;99.90
30097;DHT22;16915;51.466;3.610;2022-12-18T16:32:56;0.00;99.90
30097;DHT22;16915;51.466;3.610;2022-12-18T16:35:22;0.00;99.90
30097;DHT22;16915;51.466;3.610;2022-12-18T16:37:48;0.00;99.90
30097;DHT22;16915;51.466;3.610;2022-12-18T16:40:15;0.00;99.90
30097;DHT22;16915;51.466;3.610;2022-12-18T16:42:43;0.00;99.90
30097;DHT22;16915;51.466;3.610;2022-12-18T16:45:11;0.00;99.90
30097;DHT22;16915;51.466;3.610;2022-12-18T16:47:37;-0.10;99.90
30097;DHT22;16915;51.466;3.610;2022-12-18T16:50:04;-0.10;99.90
30097;DHT22;16915;51.466;3.610;2022-12-18T16:52:30;-0.10;99.90
30097;DHT22;16915;51.466;3.610;2022-12-18T16:54:55;-0.10;99.90
30097;DHT22;16915;51.466;3.610;2022-12-18T16:57:21;-0.10;99.90
30097;DHT22;16915;51.466;3.610;2022-12-18T16:59:47;-0.10;99.90
30097;DHT22;16915;51.466;3.610;2022-12-18T17:02:24;-0.10;99.90
30097;DHT22;16915;51.466;3.610;2022-12-18T17:04:52;-0.10;99.90
30097;DHT22;16915;51.466;3.610;2022-12-18T17:07:19;-0.10;99.90
30097;DHT22;16915;51.466;3.610;2022-12-18T17:09:44;-0.10;99.90
30097;DHT22;16915;51.466;3.610;2022-12-18T17:12:10;-0.10;99.90
30097;DHT22;16915;51.466;3.610;2022-12-18T17:14:36;-0.10;99.90
30097;DHT22;16915;51.466;3.610;2022-12-18T17:17:02;-0.10;99.90
30097;DHT22;16915;51.466;3.610;2022-12-18T17:19:28;-0.10;99.90
30097;DHT22;16915;51.466;3.610;2022-12-18T17:21:54;0.00;99.90
30097;DHT22;16915;51.466;3.610;2022-12-18T17:24:20;-0.10;99.90
30097;DHT22;16915;51.466;3.610;2022-12-18T17:26:47;0.00;99.90
30097;DHT22;16915;51.466;3.610;2022-12-18T17:29:15;0.00;99.90
30097;DHT22;16915;51.466;3.610;2022-12-18T17:31:41;0.00;99.90
30097;DHT22;16915;51.466;3.610;2022-12-18T17:34:08;0.00;99.90
30097;DHT22;16915;51.466;3.610;2022-12-18T17:36:34;0.00;99.90
30097;DHT22;16915;51.466;3.610;2022-12-18T17:39:00;0.00;99.90